NCAR-RAP Real-Time Weather Data

Output produced by METARs form (17 January 2018  22:27 UTC)
found at http://weather.rap.ucar.edu/surface/
 
Conditions at: KTPA observed 17 January 2018  21:53 UTC
Temperature: 10.6°C (51°F)
Dewpoint: 6.1°C (43°F) [RH = 74%]
Pressure (altimeter): 30.29 inches Hg (1025.8 mb)
[Sea-level pressure: 1025.6 mb]
Winds: from the NW (320 degrees) at 15 MPH (13 knots; 6.8 m/s)
gusting to 28 MPH (24 knots; 12.5 m/s)
Visibility: 10 or more miles (16+ km)
Ceiling: 1500 feet AGL
Clouds: overcast cloud deck at 1500 feet AGL
Present Weather: no significant weather observed at this time
KTPA 172153Z 32013G24KT 10SM OVC015 11/06 A3029 RMK AO2 SLP256 T01060061

Conditions at: KTPA observed 17 January 2018  21:32 UTC
Temperature: 11.1°C (52°F)
Dewpoint: 6.1°C (43°F) [RH = 71%]
Pressure (altimeter): 30.28 inches Hg (1025.5 mb)
Winds: from the NW (320 degrees) at 17 MPH (15 knots; 7.8 m/s)
gusting to 23 MPH (20 knots; 10.4 m/s)
Visibility: 10 or more miles (16+ km)
Ceiling: 1500 feet AGL
Clouds: broken clouds at 1500 feet AGL
overcast cloud deck at 3000 feet AGL
Present Weather: no significant weather observed at this time
KTPA 172132Z 32015G20KT 10SM BKN015 OVC030 11/06 A3028 RMK AO2 T01110061

Conditions at: KTPA observed 17 January 2018  20:53 UTC
Temperature: 12.2°C (54°F)
Dewpoint: 6.1°C (43°F) [RH = 66%]
Pressure (altimeter): 30.27 inches Hg (1025.1 mb)
[Sea-level pressure: 1025.1 mb]
Winds: from the NNW (330 degrees) at 21 MPH (18 knots; 9.4 m/s)
gusting to 26 MPH (23 knots; 12.0 m/s)
Visibility: 10 or more miles (16+ km)
Ceiling: 3000 feet AGL
Clouds: few clouds at 2000 feet AGL
overcast cloud deck at 3000 feet AGL
Present Weather: no significant weather observed at this time
KTPA 172053Z 33018G23KT 10SM FEW020 OVC030 12/06 A3027 RMK AO2 SLP251 T01220061 51007

Conditions at: KTPA observed 17 January 2018  19:53 UTC
Temperature: 13.9°C (57°F)
Dewpoint: 7.2°C (45°F) [RH = 64%]
Pressure (altimeter): 30.27 inches Hg (1025.1 mb)
[Sea-level pressure: 1024.8 mb]
Winds: from the NW (320 degrees) at 12 MPH (10 knots; 5.2 m/s)
Visibility: 10 or more miles (16+ km)
Ceiling: 7000 feet AGL
Clouds: scattered clouds at 1500 feet AGL
broken clouds at 7000 feet AGL
Present Weather: no significant weather observed at this time
KTPA 171953Z 32010KT 10SM SCT015 BKN070 14/07 A3027 RMK AO2 SLP248 T01390072

Conditions at: KTPA observed 17 January 2018  19:45 UTC
Temperature: 12.8°C (55°F)
Dewpoint: 7.8°C (46°F) [RH = 72%]
Pressure (altimeter): 30.27 inches Hg (1025.1 mb)
Winds: from the NW (310 degrees) at 13 MPH (11 knots; 5.7 m/s)
gusting to 20 MPH (17 knots; 8.8 m/s)
Visibility: 10 or more miles (16+ km)
Ceiling: 7000 feet AGL
Clouds: scattered clouds at 1500 feet AGL
broken clouds at 7000 feet AGL
Present Weather: no significant weather observed at this time
KTPA 171945Z 31011G17KT 10SM SCT015 BKN070 13/08 A3027 RMK AO2 T01280078

Conditions at: KTPA observed 17 January 2018  18:53 UTC
Temperature: 15.0°C (59°F)
Dewpoint: 8.3°C (47°F) [RH = 64%]
Pressure (altimeter): 30.26 inches Hg (1024.8 mb)
[Sea-level pressure: 1024.8 mb]
Winds: from the NW (310 degrees) at 15 MPH (13 knots; 6.8 m/s)
gusting to 24 MPH (21 knots; 10.9 m/s)
Visibility: 10 or more miles (16+ km)
Ceiling: 1600 feet AGL
Clouds: broken clouds at 1600 feet AGL
Present Weather: no significant weather observed at this time
KTPA 171853Z 31013G21KT 10SM BKN016 15/08 A3026 RMK AO2 SLP248 T01500083

Conditions at: KTPA observed 17 January 2018  18:49 UTC
Temperature: 15.0°C (59°F)
Dewpoint: 9.0°C (48°F) [RH = 67%]
Pressure (altimeter): 30.26 inches Hg (1024.8 mb)
Winds: from the NW (310 degrees) at 18 MPH (16 knots; 8.3 m/s)
gusting to 24 MPH (21 knots; 10.9 m/s)
Visibility: 10 or more miles (16+ km)
Ceiling: 1600 feet AGL
Clouds: broken clouds at 1600 feet AGL
Present Weather: no significant weather observed at this time
KTPA 171849Z 31016G21KT 10SM BKN016 15/09 A3026 RMK AO2

Conditions at: KTPA observed 17 January 2018  17:53 UTC
Temperature: 19.4°C (67°F)
Dewpoint: 9.4°C (49°F) [RH = 52%]
Pressure (altimeter): 30.25 inches Hg (1024.5 mb)
[Sea-level pressure: 1024.4 mb]
Winds: from the NW (310 degrees) at 17 MPH (15 knots; 7.8 m/s)
gusting to 21 MPH (18 knots; 9.4 m/s)
Visibility: 10 or more miles (16+ km)
Ceiling: at least 12,000 feet AGL
Clouds: few clouds at 4000 feet AGL
few clouds at 25000 feet AGL
Present Weather: no significant weather observed at this time
KTPA 171753Z 31015G18KT 10SM FEW040 FEW250 19/09 A3025 RMK AO2 SLP244 T01940094 10206 20100 58015

Conditions at: KTPA observed 17 January 2018  16:53 UTC
Temperature: 18.3°C (65°F)
Dewpoint: 10.6°C (51°F) [RH = 61%]
Pressure (altimeter): 30.28 inches Hg (1025.5 mb)
[Sea-level pressure: 1025.3 mb]
Winds: from the WSW (250 degrees) at 7 MPH (6 knots; 3.1 m/s)
Visibility: 10 or more miles (16+ km)
Ceiling: at least 12,000 feet AGL
Clouds: few clouds at 3000 feet AGL
few clouds at 25000 feet AGL
Present Weather: no significant weather observed at this time
KTPA 171653Z 25006KT 10SM FEW030 FEW250 18/11 A3028 RMK AO2 SLP253 T01830106

Conditions at: KTPA observed 17 January 2018  15:53 UTC
Temperature: 17.8°C (64°F)
Dewpoint: 11.1°C (52°F) [RH = 65%]
Pressure (altimeter): 30.30 inches Hg (1026.2 mb)
[Sea-level pressure: 1025.9 mb]
Winds: from the WSW (250 degrees) at 5 MPH (4 knots; 2.1 m/s)
Visibility: 10 or more miles (16+ km)
Ceiling: at least 12,000 feet AGL
Clouds: scattered clouds at 25000 feet AGL
Present Weather: no significant weather observed at this time
KTPA 171553Z 25004KT 10SM SCT250 18/11 A3030 RMK AO2 SLP259 T01780111

Conditions at: KTPA observed 17 January 2018  14:53 UTC
Temperature: 15.6°C (60°F)
Dewpoint: 10.6°C (51°F) [RH = 72%]
Pressure (altimeter): 30.30 inches Hg (1026.2 mb)
[Sea-level pressure: 1025.8 mb]
Winds: calm
Visibility: 10 or more miles (16+ km)
Ceiling: at least 12,000 feet AGL
Clouds: scattered clouds at 25000 feet AGL
Present Weather: no significant weather observed at this time
KTPA 171453Z 00000KT 10SM SCT250 16/11 A3030 RMK AO2 SLP258 T01560106 51009

Conditions at: KTPA observed 17 January 2018  13:53 UTC
Temperature: 12.2°C (54°F)
Dewpoint: 9.4°C (49°F) [RH = 83%]
Pressure (altimeter): 30.29 inches Hg (1025.8 mb)
[Sea-level pressure: 1025.6 mb]
Winds: calm
Visibility: 10 or more miles (16+ km)
Ceiling: at least 12,000 feet AGL
Clouds: few clouds at 25000 feet AGL
Present Weather: no significant weather observed at this time
KTPA 171353Z 00000KT 10SM FEW250 12/09 A3029 RMK AO2 SLP256 T01220094

Conditions at: KTPA observed 17 January 2018  12:53 UTC
Temperature: 10.6°C (51°F)
Dewpoint: 8.9°C (48°F) [RH = 89%]
Pressure (altimeter): 30.28 inches Hg (1025.5 mb)
[Sea-level pressure: 1025.3 mb]
Winds: calm
Visibility: 8 miles (13 km)
Ceiling: at least 12,000 feet AGL
Clouds: few clouds at 25000 feet AGL
Present Weather: no significant weather observed at this time
KTPA 171253Z 00000KT 8SM FEW250 11/09 A3028 RMK AO2 SLP253 T01060089

Conditions at: KTPA observed 17 January 2018  11:53 UTC
Temperature: 10.0°C (50°F)
Dewpoint: 8.3°C (47°F) [RH = 89%]
Pressure (altimeter): 30.27 inches Hg (1025.1 mb)
[Sea-level pressure: 1024.9 mb]
Winds: from the N (360 degrees) at 3 MPH (3 knots; 1.6 m/s)
Visibility: 8 miles (13 km)
Ceiling: at least 12,000 feet AGL
Clouds: sky clear below 12,000 feet AGL
Present Weather: no significant weather observed at this time
KTPA 171153Z 36003KT 8SM CLR 10/08 A3027 RMK AO2 SLP249 T01000083 10128 20094 53007

Conditions at: KTPA observed 17 January 2018  10:53 UTC
Temperature: 10.0°C (50°F)
Dewpoint: 8.3°C (47°F) [RH = 89%]
Pressure (altimeter): 30.25 inches Hg (1024.5 mb)
[Sea-level pressure: 1024.5 mb]
Winds: from the N (360 degrees) at 3 MPH (3 knots; 1.6 m/s)
Visibility: 8 miles (13 km)
Ceiling: at least 12,000 feet AGL
Clouds: sky clear below 12,000 feet AGL
Present Weather: no significant weather observed at this time
KTPA 171053Z 36003KT 8SM CLR 10/08 A3025 RMK AO2 SLP245 T01000083

Conditions at: KTPA observed 17 January 2018  09:53 UTC
Temperature: 10.0°C (50°F)
Dewpoint: 8.3°C (47°F) [RH = 89%]
Pressure (altimeter): 30.25 inches Hg (1024.5 mb)
[Sea-level pressure: 1024.5 mb]
Winds: from the N (350 degrees) at 3 MPH (3 knots; 1.6 m/s)
Visibility: 10 or more miles (16+ km)
Ceiling: at least 12,000 feet AGL
Clouds: sky clear below 12,000 feet AGL
Present Weather: no significant weather observed at this time
KTPA 170953Z 35003KT 10SM CLR 10/08 A3025 RMK AO2 SLP245 T01000083

Conditions at: KTPA observed 17 January 2018  08:53 UTC
Temperature: 10.0°C (50°F)
Dewpoint: 8.3°C (47°F) [RH = 89%]
Pressure (altimeter): 30.25 inches Hg (1024.5 mb)
[Sea-level pressure: 1024.2 mb]
Winds: from the NNW (340 degrees) at 3 MPH (3 knots; 1.6 m/s)
Visibility: 10 or more miles (16+ km)
Ceiling: at least 12,000 feet AGL
Clouds: sky clear below 12,000 feet AGL
Present Weather: no significant weather observed at this time
KTPA 170853Z 34003KT 10SM CLR 10/08 A3025 RMK AO2 SLP242 T01000083 56007

Conditions at: KTPA observed 17 January 2018  07:53 UTC
Temperature: 11.1°C (52°F)
Dewpoint: 8.3°C (47°F) [RH = 83%]
Pressure (altimeter): 30.25 inches Hg (1024.5 mb)
[Sea-level pressure: 1024.2 mb]
Winds: from the N (350 degrees) at 3 MPH (3 knots; 1.6 m/s)
Visibility: 10 or more miles (16+ km)
Ceiling: at least 12,000 feet AGL
Clouds: sky clear below 12,000 feet AGL
Present Weather: no significant weather observed at this time
KTPA 170753Z 35003KT 10SM CLR 11/08 A3025 RMK AO2 SLP242 T01110083

Conditions at: KTPA observed 17 January 2018  06:53 UTC
Temperature: 12.8°C (55°F)
Dewpoint: 9.4°C (49°F) [RH = 80%]
Pressure (altimeter): 30.25 inches Hg (1024.5 mb)
[Sea-level pressure: 1024.4 mb]
Winds: calm
Visibility: 10 or more miles (16+ km)
Ceiling: at least 12,000 feet AGL
Clouds: sky clear below 12,000 feet AGL
Present Weather: no significant weather observed at this time
KTPA 170653Z 00000KT 10SM CLR 13/09 A3025 RMK AO2 SLP244 T01280094

Conditions at: KTPA observed 17 January 2018  05:53 UTC
Temperature: 12.2°C (54°F)
Dewpoint: 8.9°C (48°F) [RH = 80%]
Pressure (altimeter): 30.27 inches Hg (1025.1 mb)
[Sea-level pressure: 1025.0 mb]
Winds: calm
Visibility: 10 or more miles (16+ km)
Ceiling: at least 12,000 feet AGL
Clouds: sky clear below 12,000 feet AGL
Present Weather: no significant weather observed at this time
KTPA 170553Z 00000KT 10SM CLR 12/09 A3027 RMK AO2 SLP250 T01220089 10183 20122 58010

Conditions at: KTPA observed 17 January 2018  04:53 UTC
Temperature: 15.0°C (59°F)
Dewpoint: 9.4°C (49°F) [RH = 69%]
Pressure (altimeter): 30.29 inches Hg (1025.8 mb)
[Sea-level pressure: 1025.5 mb]
Winds: from the NE (50 degrees) at 3 MPH (3 knots; 1.6 m/s)
Visibility: 10 or more miles (16+ km)
Ceiling: at least 12,000 feet AGL
Clouds: sky clear below 12,000 feet AGL
Present Weather: no significant weather observed at this time
KTPA 170453Z 05003KT 10SM CLR 15/09 A3029 RMK AO2 SLP255 T01500094 402390089

Conditions at: KTPA observed 17 January 2018  03:53 UTC
Temperature: 15.6°C (60°F)
Dewpoint: 9.4°C (49°F) [RH = 67%]
Pressure (altimeter): 30.30 inches Hg (1026.2 mb)
[Sea-level pressure: 1025.9 mb]
Winds: calm
Visibility: 10 or more miles (16+ km)
Ceiling: at least 12,000 feet AGL
Clouds: sky clear below 12,000 feet AGL
Present Weather: no significant weather observed at this time
KTPA 170353Z 00000KT 10SM CLR 16/09 A3030 RMK AO2 SLP259 T01560094

Conditions at: KTPA observed 17 January 2018  02:53 UTC
Temperature: 15.6°C (60°F)
Dewpoint: 8.3°C (47°F) [RH = 62%]
Pressure (altimeter): 30.30 inches Hg (1026.2 mb)
[Sea-level pressure: 1026.0 mb]
Winds: variable direction winds at 3 MPH (3 knots; 1.6 m/s)
Visibility: 10 or more miles (16+ km)
Ceiling: at least 12,000 feet AGL
Clouds: sky clear below 12,000 feet AGL
Present Weather: no significant weather observed at this time
KTPA 170253Z VRB03KT 10SM CLR 16/08 A3030 RMK AO2 SLP260 T01560083 53004

Conditions at: KTPA observed 17 January 2018  01:53 UTC
Temperature: 16.1°C (61°F)
Dewpoint: 8.9°C (48°F) [RH = 62%]
Pressure (altimeter): 30.30 inches Hg (1026.2 mb)
[Sea-level pressure: 1025.9 mb]
Winds: from the NNE (30 degrees) at 3 MPH (3 knots; 1.6 m/s)
Visibility: 10 or more miles (16+ km)
Ceiling: at least 12,000 feet AGL
Clouds: sky clear below 12,000 feet AGL
Present Weather: no significant weather observed at this time
KTPA 170153Z 03003KT 10SM CLR 16/09 A3030 RMK AO2 SLP259 T01610089

Conditions at: KTPA observed 17 January 2018  00:53 UTC
Temperature: 17.2°C (63°F)
Dewpoint: 8.9°C (48°F) [RH = 58%]
Pressure (altimeter): 30.29 inches Hg (1025.8 mb)
[Sea-level pressure: 1025.5 mb]
Winds: from the N (10 degrees) at 6 MPH (5 knots; 2.6 m/s)
Visibility: 10 or more miles (16+ km)
Ceiling: at least 12,000 feet AGL
Clouds: sky clear below 12,000 feet AGL
Present Weather: no significant weather observed at this time
KTPA 170053Z 01005KT 10SM CLR 17/09 A3029 RMK AO2 SLP255 T01720089

Conditions at: KTPA observed 16 January 2018  23:53 UTC
Temperature: 17.8°C (64°F)
Dewpoint: 8.9°C (48°F) [RH = 56%]
Pressure (altimeter): 30.29 inches Hg (1025.8 mb)
[Sea-level pressure: 1025.6 mb]
Winds: from the N (350 degrees) at 7 MPH (6 knots; 3.1 m/s)
Visibility: 10 or more miles (16+ km)
Ceiling: at least 12,000 feet AGL
Clouds: few clouds at 6000 feet AGL
Present Weather: no significant weather observed at this time
KTPA 162353Z 35006KT 10SM FEW060 18/09 A3029 RMK AO2 SLP256 T01780089 10239 20178 53004

Conditions at: KTPA observed 16 January 2018  22:53 UTC
Temperature: 19.4°C (67°F)
Dewpoint: 8.9°C (48°F) [RH = 51%]
Pressure (altimeter): 30.27 inches Hg (1025.1 mb)
[Sea-level pressure: 1025.1 mb]
Winds: from the NNW (330 degrees) at 10 MPH (9 knots; 4.7 m/s)
Visibility: 10 or more miles (16+ km)
Ceiling: 34000 feet AGL
Clouds: few clouds at 6000 feet AGL
broken clouds at 34000 feet AGL
Present Weather: no significant weather observed at this time
KTPA 162253Z 33009KT 290V360 10SM FEW060 BKN340 19/09 A3027 RMK AO2 SLP251 T01940089

Conditions at: KTPA observed 16 January 2018  21:53 UTC
Temperature: 22.8°C (73°F)
Dewpoint: 7.2°C (45°F) [RH = 37%]
Pressure (altimeter): 30.28 inches Hg (1025.5 mb)
[Sea-level pressure: 1025.4 mb]
Winds: from the N (350 degrees) at 9 MPH (8 knots; 4.2 m/s)
Visibility: 10 or more miles (16+ km)
Ceiling: 34000 feet AGL
Clouds: few clouds at 2700 feet AGL
scattered clouds at 7000 feet AGL
broken clouds at 34000 feet AGL
Present Weather: no significant weather observed at this time
KTPA 162153Z 35008KT 10SM FEW027 SCT070 BKN340 23/07 A3028 RMK AO2 SLP254 T02280072

Conditions at: KTPA observed 16 January 2018  20:53 UTC
Temperature: 23.3°C (74°F)
Dewpoint: 7.2°C (45°F) [RH = 36%]
Pressure (altimeter): 30.28 inches Hg (1025.5 mb)
[Sea-level pressure: 1025.2 mb]
Winds: from the NW (320 degrees) at 8 MPH (7 knots; 3.6 m/s)
Visibility: 10 or more miles (16+ km)
Ceiling: 34000 feet AGL
Clouds: few clouds at 5500 feet AGL
broken clouds at 34000 feet AGL
Present Weather: no significant weather observed at this time
KTPA 162053Z 32007KT 10SM FEW055 BKN340 23/07 A3028 RMK AO2 SLP252 T02330072 56020

Conditions at: KTPA observed 16 January 2018  19:53 UTC
Temperature: 22.8°C (73°F)
Dewpoint: 7.8°C (46°F) [RH = 38%]
Pressure (altimeter): 30.29 inches Hg (1025.8 mb)
[Sea-level pressure: 1025.6 mb]
Winds: from the NNE (20 degrees) at 7 MPH (6 knots; 3.1 m/s)
Visibility: 10 or more miles (16+ km)
Ceiling: 5500 feet AGL
Clouds: broken clouds at 5500 feet AGL
overcast cloud deck at 7000 feet AGL
Present Weather: no significant weather observed at this time
KTPA 161953Z 02006KT 10SM BKN055 OVC070 23/08 A3029 RMK AO2 SLP256 T02280078

Conditions at: KTPA observed 16 January 2018  18:53 UTC
Temperature: 23.3°C (74°F)
Dewpoint: 8.3°C (47°F) [RH = 38%]
Pressure (altimeter): 30.30 inches Hg (1026.2 mb)
[Sea-level pressure: 1025.8 mb]
Winds: variable direction winds at 5 MPH (4 knots; 2.1 m/s)
Visibility: 10 or more miles (16+ km)
Ceiling: at least 12,000 feet AGL
Clouds: scattered clouds at 5500 feet AGL
scattered clouds at 25000 feet AGL
Present Weather: no significant weather observed at this time
KTPA 161853Z VRB04KT 10SM SCT055 SCT250 23/08 A3030 RMK AO2 SLP258 T02330083

Conditions at: KTPA observed 16 January 2018  17:53 UTC
Temperature: 21.7°C (71°F)
Dewpoint: 8.3°C (47°F) [RH = 42%]
Pressure (altimeter): 30.34 inches Hg (1027.5 mb)
[Sea-level pressure: 1027.2 mb]
Winds: from the E (90 degrees) at 7 MPH (6 knots; 3.1 m/s)
Visibility: 10 or more miles (16+ km)
Ceiling: at least 12,000 feet AGL
Clouds: scattered clouds at 6500 feet AGL
Present Weather: no significant weather observed at this time
KTPA 161753Z 09006KT 10SM SCT065 22/08 A3034 RMK AO2 SLP272 T02170083 10217 20094 58019

Conditions at: KTPA observed 16 January 2018  16:53 UTC
Temperature: 20.0°C (68°F)
Dewpoint: 10.0°C (50°F) [RH = 53%]
Pressure (altimeter): 30.36 inches Hg (1028.2 mb)
[Sea-level pressure: 1028.2 mb]
Winds: variable direction winds at 6 MPH (5 knots; 2.6 m/s)
Visibility: 10 or more miles (16+ km)
Ceiling: at least 12,000 feet AGL
Clouds: scattered clouds at 6500 feet AGL
Present Weather: no significant weather observed at this time
KTPA 161653Z VRB05KT 10SM SCT065 20/10 A3036 RMK AO2 SLP282 T02000100

Conditions at: KTPA observed 16 January 2018  15:53 UTC
Temperature: 18.3°C (65°F)
Dewpoint: 9.4°C (49°F) [RH = 56%]
Pressure (altimeter): 30.39 inches Hg (1029.2 mb)
[Sea-level pressure: 1029.2 mb]
Winds: from the ENE (70 degrees) at 6 MPH (5 knots; 2.6 m/s)
Visibility: 10 or more miles (16+ km)
Ceiling: at least 12,000 feet AGL
Clouds: scattered clouds at 7500 feet AGL
Present Weather: no significant weather observed at this time
KTPA 161553Z 07005KT 10SM SCT075 18/09 A3039 RMK AO2 SLP292 T01830094

Conditions at: KTPA observed 16 January 2018  14:53 UTC
Temperature: 15.0°C (59°F)
Dewpoint: 8.3°C (47°F) [RH = 64%]
Pressure (altimeter): 30.39 inches Hg (1029.2 mb)
[Sea-level pressure: 1029.1 mb]
Winds: from the NE (50 degrees) at 8 MPH (7 knots; 3.6 m/s)
Visibility: 10 or more miles (16+ km)
Ceiling: at least 12,000 feet AGL
Clouds: few clouds at 7000 feet AGL
Present Weather: no significant weather observed at this time
KTPA 161453Z 05007KT 10SM FEW070 15/08 A3039 RMK AO2 SLP291 T01500083 52013

Conditions at: KTPA observed 16 January 2018  13:53 UTC
Temperature: 12.2°C (54°F)
Dewpoint: 7.8°C (46°F) [RH = 74%]
Pressure (altimeter): 30.38 inches Hg (1028.9 mb)
[Sea-level pressure: 1028.6 mb]
Winds: from the NNE (30 degrees) at 7 MPH (6 knots; 3.1 m/s)
Visibility: 10 or more miles (16+ km)
Ceiling: at least 12,000 feet AGL
Clouds: scattered clouds at 6500 feet AGL
Present Weather: no significant weather observed at this time
KTPA 161353Z 03006KT 10SM SCT065 12/08 A3038 RMK AO2 SLP286 T01220078

Conditions at: KTPA observed 16 January 2018  12:53 UTC
Temperature: 10.0°C (50°F)
Dewpoint: 6.1°C (43°F) [RH = 77%]
Pressure (altimeter): 30.37 inches Hg (1028.5 mb)
[Sea-level pressure: 1028.3 mb]
Winds: from the NNE (30 degrees) at 6 MPH (5 knots; 2.6 m/s)
Visibility: 10 or more miles (16+ km)
Ceiling: at least 12,000 feet AGL
Clouds: few clouds at 6000 feet AGL
Present Weather: no significant weather observed at this time
KTPA 161253Z 03005KT 10SM FEW060 10/06 A3037 RMK AO2 SLP283 T01000061

Conditions at: KTPA observed 16 January 2018  11:53 UTC
Temperature: 9.4°C (49°F)
Dewpoint: 6.1°C (43°F) [RH = 80%]
Pressure (altimeter): 30.35 inches Hg (1027.9 mb)
[Sea-level pressure: 1027.8 mb]
Winds: from the NNE (30 degrees) at 8 MPH (7 knots; 3.6 m/s)
Visibility: 10 or more miles (16+ km)
Ceiling: at least 12,000 feet AGL
Clouds: few clouds at 6500 feet AGL
Present Weather: no significant weather observed at this time
KTPA 161153Z 03007KT 10SM FEW065 09/06 A3035 RMK AO2 SLP278 T00940061 10100 20089 53005

Conditions at: KTPA observed 16 January 2018  10:53 UTC
Temperature: 10.0°C (50°F)
Dewpoint: 6.1°C (43°F) [RH = 77%]
Pressure (altimeter): 30.35 inches Hg (1027.9 mb)
[Sea-level pressure: 1027.8 mb]
Winds: from the NE (40 degrees) at 8 MPH (7 knots; 3.6 m/s)
Visibility: 10 or more miles (16+ km)
Ceiling: 6500 feet AGL
Clouds: broken clouds at 6500 feet AGL
Present Weather: no significant weather observed at this time
KTPA 161053Z 04007KT 10SM BKN065 10/06 A3035 RMK AO2 SLP278 T01000061

Conditions at: KTPA observed 16 January 2018  09:53 UTC
Temperature: 9.4°C (49°F)
Dewpoint: 5.6°C (42°F) [RH = 77%]
Pressure (altimeter): 30.34 inches Hg (1027.5 mb)
[Sea-level pressure: 1027.3 mb]
Winds: from the NNE (30 degrees) at 8 MPH (7 knots; 3.6 m/s)
Visibility: 10 or more miles (16+ km)
Ceiling: at least 12,000 feet AGL
Clouds: few clouds at 7000 feet AGL
Present Weather: no significant weather observed at this time
KTPA 160953Z 03007KT 10SM FEW070 09/06 A3034 RMK AO2 SLP273 T00940056

Conditions at: KTPA observed 16 January 2018  08:53 UTC
Temperature: 9.4°C (49°F)
Dewpoint: 5.6°C (42°F) [RH = 77%]
Pressure (altimeter): 30.34 inches Hg (1027.5 mb)
[Sea-level pressure: 1027.3 mb]
Winds: from the NNE (30 degrees) at 8 MPH (7 knots; 3.6 m/s)
Visibility: 10 or more miles (16+ km)
Ceiling: at least 12,000 feet AGL
Clouds: scattered clouds at 6500 feet AGL
Present Weather: no significant weather observed at this time
KTPA 160853Z 03007KT 10SM SCT065 09/06 A3034 RMK AO2 SLP273 T00940056 56006

Conditions at: KTPA observed 16 January 2018  07:53 UTC
Temperature: 9.4°C (49°F)
Dewpoint: 5.0°C (41°F) [RH = 74%]
Pressure (altimeter): 30.34 inches Hg (1027.5 mb)
[Sea-level pressure: 1027.4 mb]
Winds: from the NNE (30 degrees) at 8 MPH (7 knots; 3.6 m/s)
Visibility: 10 or more miles (16+ km)
Ceiling: at least 12,000 feet AGL
Clouds: scattered clouds at 6500 feet AGL
Present Weather: no significant weather observed at this time
KTPA 160753Z 03007KT 10SM SCT065 09/05 A3034 RMK AO2 SLP274 T00940050

Conditions at: KTPA observed 16 January 2018  06:53 UTC
Temperature: 9.4°C (49°F)
Dewpoint: 4.4°C (40°F) [RH = 71%]
Pressure (altimeter): 30.35 inches Hg (1027.9 mb)
[Sea-level pressure: 1027.6 mb]
Winds: from the NNE (30 degrees) at 8 MPH (7 knots; 3.6 m/s)
Visibility: 10 or more miles (16+ km)
Ceiling: at least 12,000 feet AGL
Clouds: scattered clouds at 6000 feet AGL
Present Weather: no significant weather observed at this time
KTPA 160653Z 03007KT 10SM SCT060 09/04 A3035 RMK AO2 SLP276 T00940044

Conditions at: KTPA observed 16 January 2018  05:53 UTC
Temperature: 10.0°C (50°F)
Dewpoint: 4.4°C (40°F) [RH = 68%]
Pressure (altimeter): 30.36 inches Hg (1028.2 mb)
[Sea-level pressure: 1028.0 mb]
Winds: from the NE (40 degrees) at 6 MPH (5 knots; 2.6 m/s)
Visibility: 10 or more miles (16+ km)
Ceiling: at least 12,000 feet AGL
Clouds: scattered clouds at 6000 feet AGL
Present Weather: no significant weather observed at this time
KTPA 160553Z 04005KT 10SM SCT060 10/04 A3036 RMK AO2 SLP280 T01000044 10167 20100 58003

Conditions at: KTPA observed 16 January 2018  04:53 UTC
Temperature: 10.6°C (51°F)
Dewpoint: 3.9°C (39°F) [RH = 63%]
Pressure (altimeter): 30.37 inches Hg (1028.5 mb)
[Sea-level pressure: 1028.5 mb]
Winds: from the NE (50 degrees) at 7 MPH (6 knots; 3.1 m/s)
Visibility: 10 or more miles (16+ km)
Ceiling: at least 12,000 feet AGL
Clouds: few clouds at 5500 feet AGL
Present Weather: no significant weather observed at this time
KTPA 160453Z 05006KT 10SM FEW055 11/04 A3037 RMK AO2 SLP285 T01060039 402110072

Conditions at: KTPA observed 16 January 2018  03:53 UTC
Temperature: 11.7°C (53°F)
Dewpoint: 3.3°C (38°F) [RH = 56%]
Pressure (altimeter): 30.37 inches Hg (1028.5 mb)
[Sea-level pressure: 1028.5 mb]
Winds: from the NE (40 degrees) at 7 MPH (6 knots; 3.1 m/s)
Visibility: 10 or more miles (16+ km)
Ceiling: at least 12,000 feet AGL
Clouds: few clouds at 6000 feet AGL
Present Weather: no significant weather observed at this time
KTPA 160353Z 04006KT 10SM FEW060 12/03 A3037 RMK AO2 SLP285 T01170033

Conditions at: KTPA observed 16 January 2018  02:53 UTC
Temperature: 12.8°C (55°F)
Dewpoint: 3.3°C (38°F) [RH = 52%]
Pressure (altimeter): 30.37 inches Hg (1028.5 mb)
[Sea-level pressure: 1028.3 mb]
Winds: from the NE (40 degrees) at 8 MPH (7 knots; 3.6 m/s)
gusting to 17 MPH (15 knots; 7.8 m/s)
Visibility: 10 or more miles (16+ km)
Ceiling: at least 12,000 feet AGL
Clouds: few clouds at 5500 feet AGL
Present Weather: no significant weather observed at this time
KTPA 160253Z 04007G15KT 10SM FEW055 13/03 A3037 RMK AO2 SLP283 T01280033 51013

Conditions at: KTPA observed 16 January 2018  01:53 UTC
Temperature: 13.9°C (57°F)
Dewpoint: 5.0°C (41°F) [RH = 55%]
Pressure (altimeter): 30.37 inches Hg (1028.5 mb)
[Sea-level pressure: 1028.2 mb]
Winds: from the NE (40 degrees) at 8 MPH (7 knots; 3.6 m/s)
Visibility: 10 or more miles (16+ km)
Ceiling: at least 12,000 feet AGL
Clouds: few clouds at 10000 feet AGL
Present Weather: no significant weather observed at this time
KTPA 160153Z 04007KT 10SM FEW100 14/05 A3037 RMK AO2 SLP282 T01390050

Conditions at: KTPA observed 16 January 2018  00:53 UTC
Temperature: 15.0°C (59°F)
Dewpoint: 5.6°C (42°F) [RH = 53%]
Pressure (altimeter): 30.35 inches Hg (1027.9 mb)
[Sea-level pressure: 1027.7 mb]
Winds: from the NE (40 degrees) at 8 MPH (7 knots; 3.6 m/s)
Visibility: 10 or more miles (16+ km)
Ceiling: at least 12,000 feet AGL
Clouds: sky clear below 12,000 feet AGL
Present Weather: no significant weather observed at this time
KTPA 160053Z 04007KT 10SM CLR 15/06 A3035 RMK AO2 SLP277 T01500056

Conditions at: KTPA observed 15 January 2018  23:53 UTC
Temperature: 16.7°C (62°F)
Dewpoint: 5.6°C (42°F) [RH = 48%]
Pressure (altimeter): 30.33 inches Hg (1027.2 mb)
[Sea-level pressure: 1027.0 mb]
Winds: from the NE (40 degrees) at 8 MPH (7 knots; 3.6 m/s)
Visibility: 10 or more miles (16+ km)
Ceiling: at least 12,000 feet AGL
Clouds: few clouds at 25000 feet AGL
Present Weather: no significant weather observed at this time
KTPA 152353Z 04007KT 10SM FEW250 17/06 A3033 RMK AO2 SLP270 T01670056 10211 20167 53015

Conditions at: KTPA observed 15 January 2018  22:53 UTC
Temperature: 18.3°C (65°F)
Dewpoint: 5.0°C (41°F) [RH = 41%]
Pressure (altimeter): 30.31 inches Hg (1026.5 mb)
[Sea-level pressure: 1026.3 mb]
Winds: from the N (10 degrees) at 7 MPH (6 knots; 3.1 m/s)
Visibility: 10 or more miles (16+ km)
Ceiling: at least 12,000 feet AGL
Clouds: few clouds at 25000 feet AGL
Present Weather: no significant weather observed at this time
KTPA 152253Z 01006KT 10SM FEW250 18/05 A3031 RMK AO2 SLP263 T01830050